Terminal Aerodrome Forecast
Issued by NWS

Home | Current Version | Previous Version | Text Only | Print | Product List | Glossary On
Versions: 1 2 3 4 5 6 7 8 9 10 11 12 13 14 15 16 17 18 19 20 21 22 23 24 25 26 27 28 29 30
000
FTUS41 KBUF 271000 AAB
TAFIAG
TAF AMD
KIAG 271016Z 2710/2806 VRB03KT P6SM OVC045
     FM271500 29007KT P6SM BKN040
     FM280000 28005KT 5SM -SHSN OVC025=

USA.gov is the U.S. government's official web portal to all federal, state and local government web resources and services.